Davison Army Air Field
KDAA : now visible

Airfield :











YOU CAN JOIN US ON...

 
LOGIN :

Register | Disclaimer

   EN    FR    IT 

 









Legend :    VFR   Marginal VFR   IFR   Intensive IFR   Very Intensive IFR
Visi :
Ceiling :
>= 8 km
>= 3000ft
5 to 8 km
1000 to 3000 ft
1500m to 5 km
500 to 1000 ft
800 to 1500m
200 to 500 ft
< 800m
< 200 ft
Symbols :   Thunderstorms  Fog  Heavy snow  Heavy precipitations  Wind > 20 kt







- Airport Elevation : 73 ft


KDAA - Davison Army Air Field

CURRENT METAR :
  • 201456Z AUTO 21006KT 10SM CLR 21/11 A3032 RMK AO2 SLP270 T02080109 58003 $

EXPIRED METARs :
  • 201356Z AUTO 21005KT 10SM CLR 20/11 A3033 RMK AO2 SLP273 T01960111 $
  • 201256Z AUTO 00000KT 10SM CLR 15/12 A3033 RMK AO2 SLP274 T01450120 $

TAF TAF KDAA
Valid from the 20 at 09:00 until the 21 at 15:00 UTC


200900Z 2009/2115 VRB06KT 9999 FEW150 QNH3020INS
BECMG 2108/2109 20006KT 9999 SCT050 QNH3023INS TX24/2020Z TN06/2012Z
No reported NOTAMs for that airfield.



MET'MAP, your aeronautical weather chart ! - Copyright ORBIFLY December 2007 - Disclaimer

ORBIFLY MET'MAP TEAM :

Programming & Development : Alexandra Zaïnal
Concept & Development : Baudouin d'Aumeries
Co-Development & Prog : Marc-Olivier Méhu
Technical & hardware support : Manuel Goepfert

Contact : metmap@orbifly.com




SOURCES & CREDITS :

   NOAA       Earth
Advisory